Shoals, Indiana
Current Conditions -  °F | °C
As of 9:35 PM on Friday 28 Nov 2014 (Local Time) from KDCY Reporting Station
Clear Clear  
Wind Chill: 29°   Ceiling: Unl
Heat Index: 36°   Visibility: 10mi
Dew Point: 28°   Wind: 9mph
Humidity: 72%   Direction: 170°S
Pressure: 30.02"   Gusts: NA
Location:  38.67°N, 86.79°W
Report Text: KDCY 290335Z AUTO 17008KT 10SM CLR 02/M02 A3002 RMK AO2 T00201025
Loading
Personal Weather Stations






























Interactive Weather Map New forecast layout! Learn more

10-Day Weather Forecast

Advertisements
Track Severe Weather on mobile